aviador You're here:

LJLJ Decoded Metar

LJUBLIANA in SLOVENIA
Report Time2017-11-25 09:00:00
UTC Time2017-11-25 09:25:59
Flight Rules mvfr MVFR
Wind280° at 05 kt
W.Decomp.*RWY 30: 4.6 kt HW 1.9 kt LCW
W.Rank280° ranks 1
Current wind is above 280° avg. (3.6)
Visibility8000 m
Phenomena:Light Rain
Clouds:Overcast 025 Hf
Expected CloudBase > 800 ft AGL from Temp-Dew spread
Ceiling2,500 ft
Temp09°C (ISA -3)
Dew Point07°C (87% RH)
AAT6.5°C
QNH1014 hPa
Density Alt951 ft
Elevation1,263 ft
Report Wrong Elevation
Raw Report
LJLJ 250900Z 28005KT 8000 -RA OVC025 09/07 Q1014 NOSIG=

Extra information for LJLJ:More info

Metar Taf Metar & Taf Last 4 Metars F.Rules Stats Wind Profile Meteogram Temp Stats Airport Information Weather charts Add Link Nearby VenuesMetar ALERT Operation Metar Decoded Social comments

Webcam at LJLJ